Time;durP1;ratioP1;P1;durP2;ratioP2;P2;SDS_P1;SDS_P2;PMS_P1;PMS_P2;Temp;Humidity;BMP_temperature;BMP_pressure;BME280_temperature;BME280_humidity;BME280_pressure;Samples;Min_cycle;Max_cycle;Signal;HPM_P1;HPM_P2
2022/10/30 00:01:59;;;;;;;38.30;15.68;;;17.10;99.90;;;;;;5018962;28;21023;-73
2022/10/30 00:04:25;;;;;;;32.80;15.00;;;17.20;99.90;;;;;;5006874;28;20022;-73
2022/10/30 00:06:51;;;;;;;32.50;14.95;;;17.20;99.90;;;;;;5014717;28;20037;-73
2022/10/30 00:09:16;;;;;;;27.17;15.07;;;17.20;99.90;;;;;;5010796;28;20605;-73
2022/10/30 00:11:42;;;;;;;26.60;13.35;;;17.20;99.90;;;;;;5026552;28;20041;-73
2022/10/30 00:14:08;;;;;;;39.58;17.20;;;17.20;99.90;;;;;;5016834;28;20033;-73
2022/10/30 00:16:34;;;;;;;35.80;14.48;;;17.30;99.90;;;;;;5026387;28;20025;-73
2022/10/30 00:19:00;;;;;;;30.33;13.55;;;17.30;99.90;;;;;;5008837;28;20160;-73
2022/10/30 00:21:26;;;;;;;28.33;14.13;;;17.30;99.90;;;;;;5025194;28;20028;-72
2022/10/30 00:23:53;;;;;;;27.17;13.98;;;17.20;99.90;;;;;;5029510;28;20026;-73
2022/10/30 00:26:20;;;;;;;23.45;13.48;;;17.30;99.90;;;;;;5024007;28;20026;-73
2022/10/30 00:28:50;;;;;;;41.05;14.10;;;17.30;99.90;;;;;;5016155;28;20018;-73
2022/10/30 00:31:16;;;;;;;40.27;14.53;;;17.30;99.90;;;;;;5037316;28;20033;-73
2022/10/30 00:33:42;;;;;;;30.15;13.55;;;17.30;99.90;;;;;;5024823;28;20276;-72
2022/10/30 00:36:08;;;;;;;28.48;15.15;;;17.30;99.90;;;;;;5033526;28;20029;-73
2022/10/30 00:38:34;;;;;;;32.50;14.50;;;17.20;99.90;;;;;;5021471;28;20493;-73
2022/10/30 00:40:59;;;;;;;32.63;13.75;;;17.20;99.90;;;;;;5031497;28;20335;-72
2022/10/30 00:43:39;;;;;;;30.45;14.10;;;17.20;99.90;;;;;;5018860;28;20032;-73
2022/10/30 00:46:28;;;;;;;26.30;14.23;;;17.20;99.90;;;;;;5030193;28;20029;-72
2022/10/30 00:49:08;;;;;;;25.33;14.68;;;17.20;99.90;;;;;;5020713;28;20025;-73
2022/10/30 00:51:38;;;;;;;35.13;15.68;;;17.20;99.90;;;;;;5027247;28;20482;-72
2022/10/30 00:54:05;;;;;;;33.83;15.95;;;17.20;99.90;;;;;;5019847;28;20571;-74
2022/10/30 00:56:31;;;;;;;30.00;15.82;;;17.20;99.90;;;;;;5025492;28;20105;-72
2022/10/30 00:59:01;;;;;;;36.80;14.38;;;17.20;99.90;;;;;;5019420;28;20017;-72
2022/10/30 01:01:30;;;;;;;29.13;15.38;;;17.20;99.90;;;;;;5023339;28;20034;-72
2022/10/30 01:03:59;;;;;;;30.45;14.30;;;17.20;99.90;;;;;;5009784;28;20017;-72
2022/10/30 01:06:27;;;;;;;29.95;15.15;;;17.20;99.90;;;;;;5021232;28;20093;-73
2022/10/30 01:08:54;;;;;;;26.48;14.45;;;17.20;99.90;;;;;;5012442;28;20022;-73
2022/10/30 01:11:20;;;;;;;32.80;14.95;;;17.20;99.90;;;;;;5028208;28;20059;-72
2022/10/30 01:13:49;;;;;;;33.47;15.18;;;17.20;99.90;;;;;;5022466;28;20041;-72
2022/10/30 01:16:33;;;;;;;33.03;12.98;;;17.20;99.90;;;;;;5025432;28;20105;-72
2022/10/30 01:19:13;;;;;;;40.15;16.23;;;17.20;99.90;;;;;;5013886;28;20029;-73
2022/10/30 01:22:12;;;;;;;34.88;14.55;;;17.20;99.90;;;;;;5029121;28;20422;-73
2022/10/30 01:25:09;;;;;;;26.95;14.25;;;17.20;99.90;;;;;;5032538;28;20033;-73
2022/10/30 01:28:18;;;;;;;37.58;14.63;;;17.20;99.90;;;;;;5016748;28;20054;-73
2022/10/30 01:31:06;;;;;;;29.52;14.20;;;17.20;99.90;;;;;;5032058;28;20560;-73
2022/10/30 01:34:17;;;;;;;34.08;15.63;;;17.20;99.90;;;;;;5017128;28;20108;-73
2022/10/30 01:36:53;;;;;;;35.90;14.40;;;17.10;99.90;;;;;;5031884;28;20083;-72
2022/10/30 01:39:22;;;;;;;29.13;16.08;;;17.10;99.90;;;;;;5023492;28;20034;-73
2022/10/30 01:41:48;;;;;;;27.65;14.40;;;17.20;99.90;;;;;;5026793;28;20025;-73
2022/10/30 01:44:30;;;;;;;34.03;14.63;;;17.10;99.90;;;;;;5020447;28;20033;-72
2022/10/30 01:47:12;;;;;;;30.73;14.50;;;17.10;99.90;;;;;;5017678;28;20021;-72
2022/10/30 01:49:49;;;;;;;30.48;14.98;;;17.10;99.90;;;;;;5037061;28;20461;-72
2022/10/30 01:52:27;;;;;;;31.33;14.88;;;17.20;99.90;;;;;;5023174;28;20029;-72
2022/10/30 01:55:08;;;;;;;28.35;14.50;;;17.10;99.90;;;;;;5016180;28;20022;-72
2022/10/30 01:57:53;;;;;;;29.98;14.68;;;17.10;99.90;;;;;;5017210;28;20010;-72
2022/10/30 02:00:19;;;;;;;29.40;14.27;;;17.10;99.90;;;;;;5019227;28;20027;-71
2022/10/30 02:02:46;;;;;;;36.15;14.20;;;17.10;99.90;;;;;;5014255;28;20025;-72
2022/10/30 02:05:24;;;;;;;28.30;14.60;;;17.20;99.90;;;;;;5014524;28;20029;-73
2022/10/30 02:07:49;;;;;;;32.72;14.82;;;17.20;99.90;;;;;;5002697;28;20011;-72
2022/10/30 02:10:15;;;;;;;27.17;13.80;;;17.10;99.90;;;;;;5020160;28;20068;-72
2022/10/30 02:12:41;;;;;;;27.90;14.43;;;17.10;99.90;;;;;;5029406;28;20049;-72
2022/10/30 02:15:08;;;;;;;32.78;15.02;;;17.10;99.90;;;;;;5011767;28;20375;-72
2022/10/30 02:17:34;;;;;;;40.55;15.13;;;17.10;99.90;;;;;;5017208;28;20022;-73
2022/10/30 02:20:00;;;;;;;33.67;13.88;;;17.10;99.90;;;;;;5022029;28;20056;-72
2022/10/30 02:22:26;;;;;;;25.90;13.98;;;17.10;99.90;;;;;;5016502;28;20510;-72
2022/10/30 02:24:52;;;;;;;33.92;16.25;;;17.10;99.90;;;;;;5020690;28;20029;-72
2022/10/30 02:27:18;;;;;;;37.05;14.85;;;17.10;99.90;;;;;;5022011;28;20049;-72
2022/10/30 02:29:44;;;;;;;30.45;14.27;;;17.10;99.90;;;;;;5027492;28;20021;-71
2022/10/30 02:32:09;;;;;;;32.25;14.27;;;17.10;99.90;;;;;;5016520;28;20022;-72
2022/10/30 02:34:35;;;;;;;30.38;13.32;;;17.00;99.90;;;;;;5023292;28;20028;-73
2022/10/30 02:37:01;;;;;;;26.10;14.23;;;17.10;99.90;;;;;;5019163;28;20037;-72
2022/10/30 02:39:27;;;;;;;25.95;13.30;;;17.10;99.90;;;;;;5016773;28;20019;-72
2022/10/30 02:41:53;;;;;;;26.60;14.60;;;17.10;99.90;;;;;;5016392;28;20037;-73
2022/10/30 02:44:19;;;;;;;33.30;15.57;;;17.10;99.90;;;;;;5012285;28;20109;-72
2022/10/30 02:46:44;;;;;;;27.27;14.10;;;17.10;99.90;;;;;;5033961;28;20474;-72
2022/10/30 02:49:10;;;;;;;38.08;15.70;;;17.00;99.90;;;;;;5003793;28;20038;-73
2022/10/30 02:51:36;;;;;;;26.45;13.32;;;16.90;99.90;;;;;;5031881;28;20029;-72
2022/10/30 02:54:02;;;;;;;27.70;13.13;;;17.00;99.90;;;;;;5022894;28;20021;-71
2022/10/30 02:56:28;;;;;;;29.00;14.77;;;17.00;99.90;;;;;;5026834;28;20053;-72
2022/10/30 02:58:55;;;;;;;35.38;13.80;;;17.00;99.90;;;;;;5024670;28;20029;-72
2022/10/30 03:01:21;;;;;;;24.60;14.40;;;17.00;99.90;;;;;;5039497;28;20090;-72
2022/10/30 03:03:46;;;;;;;27.05;14.13;;;17.10;99.90;;;;;;5016941;28;20025;-72
2022/10/30 03:06:15;;;;;;;31.48;15.30;;;17.00;99.90;;;;;;5021906;28;20029;-73
2022/10/30 03:08:42;;;;;;;29.65;16.52;;;17.00;99.90;;;;;;5017985;28;20017;-73
2022/10/30 03:11:14;;;;;;;26.63;13.77;;;17.00;99.90;;;;;;5020042;28;20080;-72
2022/10/30 03:13:40;;;;;;;37.35;14.10;;;16.90;99.90;;;;;;5018378;28;20627;-72
2022/10/30 03:16:10;;;;;;;31.55;14.32;;;16.90;99.90;;;;;;5017313;28;20021;-73
2022/10/30 03:18:36;;;;;;;32.47;15.02;;;16.90;99.90;;;;;;5011804;28;20030;-73
2022/10/30 03:21:04;;;;;;;34.10;17.05;;;16.90;99.90;;;;;;5027345;28;20028;-73
2022/10/30 03:23:30;;;;;;;37.17;15.35;;;17.00;99.90;;;;;;5013877;28;20022;-73
2022/10/30 03:25:57;;;;;;;35.05;14.65;;;16.90;99.90;;;;;;5025050;28;20025;-73
2022/10/30 03:28:25;;;;;;;26.65;14.10;;;16.90;99.90;;;;;;5021470;28;20048;-72
2022/10/30 03:30:56;;;;;;;28.50;13.95;;;17.00;99.90;;;;;;5022478;28;20040;-73
2022/10/30 03:33:22;;;;;;;31.52;15.02;;;17.00;99.90;;;;;;5019342;28;20102;-73
2022/10/30 03:35:48;;;;;;;28.85;13.13;;;17.00;99.90;;;;;;5020451;28;20505;-73
2022/10/30 03:38:14;;;;;;;32.65;13.88;;;17.00;99.90;;;;;;5018383;28;20018;-73
2022/10/30 03:40:40;;;;;;;25.08;14.05;;;17.00;99.90;;;;;;5022415;28;20034;-73
2022/10/30 03:43:06;;;;;;;34.45;14.23;;;17.00;99.90;;;;;;5021818;28;20461;-73
2022/10/30 03:45:33;;;;;;;34.45;14.93;;;16.90;99.90;;;;;;5018958;28;20981;-73
2022/10/30 03:48:04;;;;;;;41.03;15.10;;;16.90;99.90;;;;;;5017374;28;20093;-72
2022/10/30 03:50:30;;;;;;;32.90;15.18;;;17.00;99.90;;;;;;5016054;28;20478;-72
2022/10/30 03:52:57;;;;;;;27.30;13.25;;;17.00;99.90;;;;;;5016093;28;20022;-74
2022/10/30 03:55:24;;;;;;;25.42;14.27;;;17.00;99.90;;;;;;5025253;28;20044;-73
2022/10/30 03:57:50;;;;;;;23.02;12.93;;;17.00;99.90;;;;;;5025039;28;20013;-72
2022/10/30 04:00:17;;;;;;;29.55;14.68;;;17.00;99.90;;;;;;5024409;28;20021;-73
2022/10/30 04:02:51;;;;;;;30.00;13.75;;;17.00;99.90;;;;;;5019355;28;20089;-73
2022/10/30 04:05:19;;;;;;;27.60;13.07;;;16.90;99.90;;;;;;5023142;28;20093;-73
2022/10/30 04:07:46;;;;;;;33.33;14.77;;;17.00;99.90;;;;;;5020304;28;20203;-73
2022/10/30 04:10:13;;;;;;;27.45;15.00;;;17.00;99.90;;;;;;5014897;28;20025;-73
2022/10/30 04:12:39;;;;;;;37.38;13.93;;;17.00;99.90;;;;;;5015890;28;20038;-73
2022/10/30 04:15:07;;;;;;;27.77;14.57;;;17.00;99.90;;;;;;5024646;28;20466;-73
2022/10/30 04:17:33;;;;;;;29.73;14.02;;;17.00;99.90;;;;;;5014158;28;20398;-74
2022/10/30 04:19:59;;;;;;;25.77;14.27;;;17.00;99.90;;;;;;5019685;28;20053;-73
2022/10/30 04:22:25;;;;;;;27.50;14.40;;;17.00;99.90;;;;;;5013642;28;20491;-73
2022/10/30 04:24:52;;;;;;;31.98;14.57;;;17.00;99.90;;;;;;5016418;28;20026;-73
2022/10/30 04:27:19;;;;;;;23.77;13.93;;;17.00;99.90;;;;;;5023733;28;20578;-73
2022/10/30 04:29:45;;;;;;;23.35;13.00;;;17.00;99.90;;;;;;5014634;28;20113;-73
2022/10/30 04:32:12;;;;;;;27.25;13.77;;;16.90;99.90;;;;;;5021882;28;20116;-73
2022/10/30 04:34:38;;;;;;;35.55;14.60;;;16.90;99.90;;;;;;5016213;28;20018;-73
2022/10/30 04:37:07;;;;;;;41.30;15.70;;;16.90;99.90;;;;;;5020249;28;20026;-73
2022/10/30 04:39:33;;;;;;;29.85;13.48;;;16.90;99.90;;;;;;5021085;28;20021;-73
2022/10/30 04:41:59;;;;;;;27.70;13.60;;;16.90;99.90;;;;;;5018331;28;20026;-73
2022/10/30 04:44:25;;;;;;;27.45;12.82;;;16.90;99.90;;;;;;5035116;28;20398;-73
2022/10/30 04:46:51;;;;;;;25.83;13.32;;;16.90;99.90;;;;;;5017146;28;20105;-73
2022/10/30 04:49:17;;;;;;;26.30;13.65;;;16.90;99.90;;;;;;5029386;28;20027;-73
2022/10/30 04:51:45;;;;;;;23.00;12.90;;;17.00;99.90;;;;;;5034473;28;20025;-73
2022/10/30 04:54:11;;;;;;;30.40;13.27;;;17.00;99.90;;;;;;5016562;28;20022;-73
2022/10/30 04:56:36;;;;;;;23.58;13.73;;;16.90;99.90;;;;;;5033848;28;20032;-72
2022/10/30 04:59:03;;;;;;;30.80;13.15;;;16.90;99.90;;;;;;5017016;28;20026;-73
2022/10/30 05:01:29;;;;;;;29.40;13.48;;;16.90;99.90;;;;;;5028796;28;20048;-73
2022/10/30 05:03:57;;;;;;;25.30;13.93;;;16.90;99.90;;;;;;5015584;28;20030;-73
2022/10/30 05:06:31;;;;;;;26.65;13.50;;;16.90;99.90;;;;;;5026959;28;20030;-73
2022/10/30 05:08:57;;;;;;;28.23;13.63;;;16.90;99.90;;;;;;5012290;28;20030;-73
2022/10/30 05:11:23;;;;;;;29.33;13.18;;;16.90;99.90;;;;;;5024591;28;20022;-73
2022/10/30 05:13:48;;;;;;;27.60;12.93;;;16.90;99.90;;;;;;5023176;28;20048;-73
2022/10/30 05:16:14;;;;;;;27.95;14.30;;;16.90;99.90;;;;;;5022669;28;20117;-73
2022/10/30 05:18:40;;;;;;;30.80;13.88;;;16.90;99.90;;;;;;5018248;28;20494;-73
2022/10/30 05:21:06;;;;;;;33.13;14.70;;;16.90;99.90;;;;;;5020645;28;20026;-72
2022/10/30 05:23:32;;;;;;;23.83;13.77;;;16.90;99.90;;;;;;5013781;28;20161;-73
2022/10/30 05:26:00;;;;;;;42.33;15.25;;;16.90;99.90;;;;;;5027840;28;20029;-73
2022/10/30 05:28:26;;;;;;;34.97;13.45;;;16.80;99.90;;;;;;5016942;28;20064;-73
2022/10/30 05:30:53;;;;;;;26.00;14.48;;;16.70;99.90;;;;;;5025175;28;20025;-73
2022/10/30 05:33:19;;;;;;;29.85;14.50;;;16.70;99.90;;;;;;5019680;28;20437;-73
2022/10/30 05:35:44;;;;;;;32.08;13.93;;;16.70;99.90;;;;;;5022368;28;20021;-73
2022/10/30 05:38:11;;;;;;;30.40;14.90;;;16.90;99.90;;;;;;5021295;28;20418;-73
2022/10/30 05:40:37;;;;;;;25.58;14.45;;;16.80;99.90;;;;;;5020129;28;20049;-73
2022/10/30 05:43:04;;;;;;;25.13;13.98;;;16.70;99.90;;;;;;5020528;28;20091;-73
2022/10/30 05:45:30;;;;;;;38.35;15.15;;;16.70;99.90;;;;;;5020628;28;20577;-73
2022/10/30 05:47:58;;;;;;;22.83;14.45;;;16.80;99.90;;;;;;5017390;28;20025;-73
2022/10/30 05:50:26;;;;;;;33.63;14.85;;;16.80;99.90;;;;;;5017806;28;20564;-73
2022/10/30 05:52:58;;;;;;;30.20;15.27;;;16.80;99.90;;;;;;5027275;28;20017;-72
2022/10/30 05:55:24;;;;;;;23.60;12.43;;;16.70;99.90;;;;;;5028024;28;20087;-73
2022/10/30 05:57:58;;;;;;;38.85;15.35;;;16.70;99.90;;;;;;5027158;28;20026;-73
2022/10/30 06:00:26;;;;;;;23.85;12.98;;;16.70;99.90;;;;;;5028524;28;20019;-73
2022/10/30 06:02:52;;;;;;;29.13;14.93;;;16.60;99.90;;;;;;5020561;28;20015;-73
2022/10/30 06:05:17;;;;;;;27.00;14.35;;;16.60;99.90;;;;;;5026693;28;20049;-73
2022/10/30 06:07:43;;;;;;;36.80;15.73;;;16.60;99.90;;;;;;5019563;28;20029;-72
2022/10/30 06:10:09;;;;;;;30.50;15.52;;;16.60;99.90;;;;;;5039703;28;20025;-73
2022/10/30 06:12:35;;;;;;;33.22;14.77;;;16.60;99.90;;;;;;5035322;28;20495;-72
2022/10/30 06:15:02;;;;;;;23.42;13.65;;;16.60;99.90;;;;;;5022118;28;20108;-73
2022/10/30 06:17:30;;;;;;;27.60;15.05;;;16.60;99.90;;;;;;5012438;28;20487;-73
2022/10/30 06:19:56;;;;;;;33.55;15.32;;;16.70;99.90;;;;;;5015804;28;20030;-74
2022/10/30 06:22:21;;;;;;;30.38;15.38;;;16.70;99.90;;;;;;5013135;28;20049;-73
2022/10/30 06:24:47;;;;;;;34.03;14.45;;;16.70;99.90;;;;;;5025025;28;20502;-73
2022/10/30 06:27:13;;;;;;;36.38;17.05;;;16.70;99.90;;;;;;5017849;28;20033;-73
2022/10/30 06:29:39;;;;;;;30.85;14.13;;;16.70;99.90;;;;;;5020673;28;20029;-74
2022/10/30 06:32:05;;;;;;;29.05;14.13;;;16.70;99.90;;;;;;5014847;28;20132;-74
2022/10/30 06:34:31;;;;;;;34.70;14.80;;;16.70;99.90;;;;;;5015024;28;20116;-74
2022/10/30 06:36:56;;;;;;;30.80;14.35;;;16.70;99.90;;;;;;5030934;28;20105;-74
2022/10/30 06:39:22;;;;;;;28.80;13.45;;;16.70;99.90;;;;;;5010917;28;20083;-74
2022/10/30 06:41:48;;;;;;;36.63;15.52;;;16.70;99.90;;;;;;5014885;28;20026;-74
2022/10/30 06:44:14;;;;;;;25.35;12.82;;;16.80;99.90;;;;;;5009453;28;20061;-74
2022/10/30 06:46:39;;;;;;;29.50;13.95;;;16.80;99.90;;;;;;5016879;28;20026;-74
2022/10/30 06:49:05;;;;;;;32.22;13.88;;;16.80;99.90;;;;;;5010104;28;20128;-73
2022/10/30 06:51:31;;;;;;;28.25;13.82;;;16.80;99.90;;;;;;5015279;28;20018;-74
2022/10/30 06:53:57;;;;;;;27.83;13.63;;;16.80;99.90;;;;;;5001439;28;20122;-75
2022/10/30 06:56:23;;;;;;;35.80;13.88;;;16.80;99.90;;;;;;5001355;28;20022;-74
2022/10/30 06:58:49;;;;;;;24.02;13.38;;;16.90;99.90;;;;;;4998335;28;20089;-73
2022/10/30 07:01:14;;;;;;;27.45;13.95;;;16.90;99.90;;;;;;5011603;28;20673;-73
2022/10/30 07:03:40;;;;;;;37.58;14.95;;;16.90;99.90;;;;;;4997998;28;20469;-74
2022/10/30 07:06:06;;;;;;;30.45;14.13;;;16.90;99.90;;;;;;4999967;28;20034;-74
2022/10/30 07:08:32;;;;;;;31.42;14.57;;;16.90;99.90;;;;;;5008273;28;20014;-74
2022/10/30 07:10:58;;;;;;;24.67;13.60;;;16.90;99.90;;;;;;5014081;28;20129;-73
2022/10/30 07:13:24;;;;;;;32.20;14.43;;;17.00;99.90;;;;;;4998876;28;20132;-73
2022/10/30 07:15:50;;;;;;;28.15;15.00;;;17.00;99.90;;;;;;5023802;28;20024;-73
2022/10/30 07:18:15;;;;;;;34.33;13.88;;;17.10;99.90;;;;;;5018223;28;20014;-74
2022/10/30 07:20:41;;;;;;;35.45;15.25;;;17.10;99.90;;;;;;5036941;28;20160;-74
2022/10/30 07:23:07;;;;;;;34.17;14.63;;;17.10;99.90;;;;;;5014823;28;20057;-74
2022/10/30 07:25:33;;;;;;;26.67;12.95;;;17.20;99.90;;;;;;5030245;28;20026;-74
2022/10/30 07:28:00;;;;;;;25.83;13.55;;;17.10;99.90;;;;;;5018116;28;20474;-74
2022/10/30 07:30:27;;;;;;;30.52;12.65;;;17.20;99.90;;;;;;5022048;28;20022;-73
2022/10/30 07:32:57;;;;;;;29.17;12.98;;;17.30;99.90;;;;;;5021923;28;20025;-74
2022/10/30 07:35:23;;;;;;;21.73;12.95;;;17.40;99.90;;;;;;5017404;28;20033;-74
2022/10/30 07:37:49;;;;;;;34.13;12.75;;;17.40;99.90;;;;;;5016657;28;20399;-74
2022/10/30 07:40:15;;;;;;;22.95;11.52;;;17.40;99.90;;;;;;5015301;28;20028;-74
2022/10/30 07:42:41;;;;;;;25.30;11.88;;;17.50;99.90;;;;;;5012670;28;20430;-74
2022/10/30 07:45:07;;;;;;;30.33;12.05;;;17.50;99.90;;;;;;5023132;28;20030;-73
2022/10/30 07:47:37;;;;;;;28.00;13.00;;;17.60;99.90;;;;;;5024926;28;20046;-74
2022/10/30 07:50:03;;;;;;;29.67;12.82;;;17.70;99.90;;;;;;5020225;28;20433;-73
2022/10/30 07:52:32;;;;;;;31.30;12.25;;;17.80;99.90;;;;;;5023502;28;20033;-73
2022/10/30 07:54:58;;;;;;;24.60;13.00;;;17.90;99.90;;;;;;5028353;28;20029;-74
2022/10/30 07:57:24;;;;;;;27.10;11.90;;;17.90;99.90;;;;;;5022456;28;20045;-74
2022/10/30 07:59:49;;;;;;;27.80;12.57;;;18.10;99.90;;;;;;5023752;28;20492;-74
2022/10/30 08:02:15;;;;;;;21.58;11.52;;;18.10;99.90;;;;;;5016981;28;20026;-73
2022/10/30 08:04:41;;;;;;;24.95;11.73;;;18.20;99.90;;;;;;5016394;28;20031;-73
2022/10/30 08:07:07;;;;;;;30.27;11.65;;;18.20;99.90;;;;;;5014248;28;20026;-73
2022/10/30 08:09:33;;;;;;;29.25;12.77;;;18.30;99.90;;;;;;5012582;28;20021;-74
2022/10/30 08:11:58;;;;;;;29.35;10.88;;;18.40;99.90;;;;;;5024603;28;20049;-74
2022/10/30 08:14:24;;;;;;;27.95;10.93;;;18.50;99.90;;;;;;5015633;28;20034;-73
2022/10/30 08:16:50;;;;;;;28.27;11.85;;;18.60;99.90;;;;;;5027817;28;20121;-74
2022/10/30 08:19:16;;;;;;;31.08;11.95;;;18.60;99.90;;;;;;5018258;28;20092;-72
2022/10/30 08:21:42;;;;;;;29.33;11.90;;;18.70;99.90;;;;;;5023706;28;20037;-71
2022/10/30 08:24:08;;;;;;;35.88;11.27;;;18.80;99.90;;;;;;5013641;28;20063;-71
2022/10/30 08:26:34;;;;;;;22.85;10.27;;;18.90;99.90;;;;;;5024615;28;20116;-71
2022/10/30 08:29:00;;;;;;;20.25;10.25;;;19.00;99.90;;;;;;5015805;28;20517;-71
2022/10/30 08:31:26;;;;;;;25.38;11.23;;;19.00;99.90;;;;;;5022773;28;20080;-71
2022/10/30 08:33:52;;;;;;;35.13;10.52;;;19.10;99.90;;;;;;5012984;28;20021;-71
2022/10/30 08:36:18;;;;;;;39.28;12.05;;;19.20;99.90;;;;;;5020812;28;20545;-71
2022/10/30 08:38:43;;;;;;;21.75;10.23;;;19.20;99.90;;;;;;5016419;28;20053;-71
2022/10/30 08:41:09;;;;;;;26.92;10.73;;;19.10;99.90;;;;;;5018781;28;20040;-71
2022/10/30 08:43:35;;;;;;;24.15;9.85;;;19.20;99.90;;;;;;5012036;28;20026;-72
2022/10/30 08:46:01;;;;;;;35.38;12.48;;;19.20;99.90;;;;;;5028809;28;20029;-71
2022/10/30 08:48:27;;;;;;;27.10;10.75;;;19.20;99.90;;;;;;5018676;28;20077;-71
2022/10/30 08:50:57;;;;;;;30.73;10.32;;;19.30;99.90;;;;;;5020312;28;20030;-72
2022/10/30 08:53:23;;;;;;;;;;;19.30;99.90;;;;;;5025648;28;20034;-72
2022/10/30 08:55:50;;;;;;;21.67;10.02;;;19.40;99.90;;;;;;5027481;28;19951;-71
2022/10/30 08:58:16;;;;;;;24.73;9.27;;;19.50;99.90;;;;;;5021974;28;20501;-72
2022/10/30 09:00:42;;;;;;;24.10;8.70;;;19.50;99.90;;;;;;5023769;28;20095;-71
2022/10/30 09:03:08;;;;;;;24.83;9.70;;;19.60;99.90;;;;;;5023580;28;20577;-72
2022/10/30 09:05:35;;;;;;;25.00;9.77;;;19.60;99.90;;;;;;5027238;28;20076;-72
2022/10/30 09:08:01;;;;;;;26.73;9.98;;;19.70;99.90;;;;;;5021899;28;20061;-71
2022/10/30 09:10:27;;;;;;;22.70;9.50;;;19.80;99.90;;;;;;5025186;28;20056;-71
2022/10/30 09:12:57;;;;;;;15.68;8.90;;;19.70;99.90;;;;;;5028659;28;20046;-71
2022/10/30 09:15:24;;;;;;;24.23;9.55;;;19.80;99.90;;;;;;5022605;28;20072;-72
2022/10/30 09:17:57;;;;;;;24.17;8.80;;;19.70;99.90;;;;;;5015759;28;20011;-72
2022/10/30 09:20:23;;;;;;;26.33;8.70;;;19.50;99.90;;;;;;5022185;28;20075;-72
2022/10/30 09:22:49;;;;;;;22.33;10.35;;;19.50;99.90;;;;;;5013749;28;20019;-71
2022/10/30 09:25:15;;;;;;;24.77;9.30;;;19.60;99.90;;;;;;5043880;28;20025;-72
2022/10/30 09:27:41;;;;;;;22.30;9.10;;;19.70;99.90;;;;;;5028253;28;20029;-72
2022/10/30 09:30:08;;;;;;;16.95;8.30;;;19.90;99.90;;;;;;5025064;28;20105;-72
2022/10/30 09:32:34;;;;;;;20.33;9.23;;;20.00;99.90;;;;;;5025310;28;20068;-72
2022/10/30 09:34:59;;;;;;;26.55;8.10;;;20.10;99.90;;;;;;5023653;28;20030;-73
2022/10/30 09:37:26;;;;;;;17.13;8.57;;;20.20;99.90;;;;;;5025091;28;20064;-73
2022/10/30 09:39:52;;;;;;;26.70;9.35;;;20.30;99.90;;;;;;5021293;28;20029;-73
2022/10/30 09:42:45;;;;;;;24.05;8.93;;;20.40;99.90;;;;;;5023048;28;20483;-73
2022/10/30 09:45:40;;;;;;;19.52;8.15;;;20.50;99.90;;;;;;5014389;28;20029;-73
2022/10/30 09:48:56;;;;;;;20.73;8.75;;;20.60;99.90;;;;;;5018049;28;20049;-72
2022/10/30 09:52:07;;;;;;;15.50;8.25;;;20.60;99.90;;;;;;4993516;28;20095;-73
2022/10/30 09:54:47;;;;;;;21.52;8.50;;;20.50;99.90;;;;;;5012274;28;20030;-73
2022/10/30 09:57:35;;;;;;;22.90;7.97;;;20.50;99.90;;;;;;5018988;28;20516;-73
2022/10/30 10:00:09;;;;;;;24.20;9.05;;;20.50;99.90;;;;;;5032290;28;20107;-73
2022/10/30 10:02:52;;;;;;;21.60;8.27;;;20.60;99.90;;;;;;5017376;28;20021;-73
2022/10/30 10:05:28;;;;;;;23.85;9.43;;;20.70;99.90;;;;;;5020107;28;20482;-73
2022/10/30 10:08:04;;;;;;;19.35;7.60;;;20.80;99.90;;;;;;5014181;28;20490;-73
2022/10/30 10:11:09;;;;;;;26.83;8.43;;;20.90;99.90;;;;;;5022742;28;20041;-73
2022/10/30 10:13:41;;;;;;;23.48;8.30;;;20.80;99.90;;;;;;5023218;28;20034;-73
2022/10/30 10:16:20;;;;;;;25.38;8.60;;;20.90;99.90;;;;;;5022391;28;20022;-73
2022/10/30 10:19:20;;;;;;;18.55;8.40;;;20.90;99.90;;;;;;5017532;28;20093;-73
2022/10/30 10:22:03;;;;;;;20.38;8.30;;;21.00;99.90;;;;;;5020198;28;20038;-73
2022/10/30 10:24:38;;;;;;;19.75;7.60;;;21.10;99.90;;;;;;5016284;28;20017;-73
2022/10/30 10:27:19;;;;;;;22.65;8.32;;;21.00;99.90;;;;;;5008659;28;20022;-74
2022/10/30 10:30:04;;;;;;;19.45;8.77;;;21.00;99.90;;;;;;5013800;28;20022;-73
2022/10/30 10:32:45;;;;;;;23.38;8.35;;;21.10;99.90;;;;;;5009572;28;20079;-74
2022/10/30 10:35:16;;;;;;;14.88;7.13;;;21.10;99.90;;;;;;5014959;28;20038;-74
2022/10/30 10:37:51;;;;;;;22.25;9.00;;;21.10;99.90;;;;;;5017235;28;20028;-74
2022/10/30 10:40:32;;;;;;;24.17;8.18;;;21.10;99.90;;;;;;5016007;28;20034;-73
2022/10/30 10:43:25;;;;;;;20.65;7.43;;;21.10;99.90;;;;;;5010169;28;20383;-74
2022/10/30 10:46:17;;;;;;;20.27;7.82;;;21.30;99.90;;;;;;5019821;28;20068;-73
2022/10/30 10:49:18;;;;;;;24.83;7.97;;;21.40;99.90;;;;;;5016138;28;20025;-73
2022/10/30 10:51:59;;;;;;;20.75;7.90;;;21.50;99.90;;;;;;5018210;28;20042;-74
2022/10/30 10:54:47;;;;;;;20.25;8.20;;;21.30;99.90;;;;;;5021005;28;20022;-73
2022/10/30 10:57:37;;;;;;;20.63;7.63;;;21.20;99.90;;;;;;5021002;28;20049;-73
2022/10/30 11:00:15;;;;;;;23.33;7.93;;;21.10;99.90;;;;;;5017083;28;20825;-72
2022/10/30 11:02:57;;;;;;;23.50;7.43;;;20.90;99.90;;;;;;5017169;28;20638;-73
2022/10/30 11:05:26;;;;;;;16.88;6.85;;;20.90;99.90;;;;;;5021788;28;20105;-73
2022/10/30 11:07:55;;;;;;;21.38;6.18;;;20.90;99.90;;;;;;5025567;28;20085;-72
2022/10/30 11:10:22;;;;;;;14.32;7.30;;;20.90;99.90;;;;;;5026733;28;20032;-72
2022/10/30 11:12:48;;;;;;;30.02;7.75;;;20.90;99.90;;;;;;5010272;28;20475;-72
2022/10/30 11:15:47;;;;;;;18.35;7.90;;;21.00;99.90;;;;;;5025371;28;20026;-71
2022/10/30 11:18:14;;;;;;;16.63;7.00;;;21.10;99.90;;;;;;5014980;28;20088;-73
2022/10/30 11:21:02;;;;;;;21.90;7.60;;;21.20;99.90;;;;;;5026751;28;20025;-73
2022/10/30 11:23:37;;;;;;;21.55;7.88;;;21.30;99.90;;;;;;5012614;28;20080;-73
2022/10/30 11:26:24;;;;;;;26.30;7.65;;;21.50;99.90;;;;;;5028570;28;20022;-73
2022/10/30 11:29:08;;;;;;;22.25;8.13;;;21.60;99.90;;;;;;5025283;28;20067;-73
2022/10/30 11:31:37;;;;;;;17.83;7.22;;;21.80;99.90;;;;;;5015951;28;20060;-74
2022/10/30 11:34:34;;;;;;;20.50;6.38;;;21.90;99.90;;;;;;5009040;28;20025;-73
2022/10/30 11:37:00;;;;;;;18.73;7.95;;;22.10;99.90;;;;;;5017639;28;20579;-73
2022/10/30 11:39:28;;;;;;;19.17;7.35;;;22.10;99.90;;;;;;5008954;28;20464;-73
2022/10/30 11:41:59;;;;;;;27.27;7.53;;;22.00;99.90;;;;;;5015168;28;20062;-74
2022/10/30 11:44:38;;;;;;;29.20;8.02;;;21.80;99.90;;;;;;5011047;28;20026;-74
2022/10/30 11:47:05;;;;;;;20.90;7.25;;;21.70;99.90;;;;;;5013908;28;20513;-73
2022/10/30 11:49:41;;;;;;;26.70;6.70;;;21.50;99.90;;;;;;5026114;28;20517;-73
2022/10/30 11:52:08;;;;;;;21.95;7.30;;;21.50;99.90;;;;;;5013985;28;20601;-73
2022/10/30 11:54:40;;;;;;;23.05;8.27;;;21.50;99.90;;;;;;5012994;28;20018;-74
2022/10/30 11:57:36;;;;;;;14.95;5.90;;;21.40;99.90;;;;;;5012514;28;20089;-72
2022/10/30 12:00:06;;;;;;;14.48;6.53;;;21.30;99.90;;;;;;5012202;28;20057;-73
2022/10/30 12:02:41;;;;;;;16.17;6.80;;;21.30;99.90;;;;;;5009656;28;20033;-74
2022/10/30 12:05:26;;;;;;;20.25;7.50;;;21.40;99.90;;;;;;5011025;28;20034;-74
2022/10/30 12:08:07;;;;;;;32.97;7.95;;;21.40;99.90;;;;;;5008617;28;20019;-74
2022/10/30 12:10:50;;;;;;;16.00;7.38;;;21.50;99.90;;;;;;5021068;28;20038;-73
2022/10/30 12:13:18;;;;;;;20.60;7.38;;;21.50;99.90;;;;;;5005172;28;20403;-73
2022/10/30 12:15:46;;;;;;;20.48;6.97;;;21.40;99.90;;;;;;5016193;28;20037;-74
2022/10/30 12:18:26;;;;;;;15.73;7.18;;;21.50;99.90;;;;;;5017955;28;20052;-74
2022/10/30 12:20:55;;;;;;;25.98;7.38;;;21.60;99.90;;;;;;5022428;28;20385;-73
2022/10/30 12:23:24;;;;;;;21.63;7.43;;;21.90;99.90;;;;;;5020992;28;20033;-73
2022/10/30 12:26:08;;;;;;;21.63;7.20;;;22.10;99.90;;;;;;5026424;28;20025;-74
2022/10/30 12:28:34;;;;;;;23.90;7.05;;;22.20;99.90;;;;;;5015703;28;20096;-74
2022/10/30 12:31:22;;;;;;;21.48;6.47;;;22.20;99.90;;;;;;5024042;28;20029;-74
2022/10/30 12:34:18;;;;;;;26.60;7.53;;;22.20;99.90;;;;;;5016380;28;20455;-74
2022/10/30 12:36:49;;;;;;;21.02;6.68;;;22.10;99.90;;;;;;5023120;28;20030;-75
2022/10/30 12:39:43;;;;;;;18.98;6.47;;;22.20;99.90;;;;;;5019841;28;20018;-74
2022/10/30 12:42:15;;;;;;;29.27;7.53;;;22.20;99.90;;;;;;5016512;28;20445;-74
2022/10/30 12:45:08;;;;;;;18.48;6.22;;;22.30;99.90;;;;;;5024431;28;20021;-74
2022/10/30 12:47:43;;;;;;;20.55;6.30;;;22.30;99.90;;;;;;5019686;28;20030;-76
2022/10/30 12:50:26;;;;;;;18.13;7.45;;;22.40;99.90;;;;;;5025849;28;20030;-75